createdAt,value
2023-04-04T00:01:10.801Z,3.55
2023-04-04T00:06:04.274Z,3.33
2023-04-04T00:10:57.713Z,3.41
2023-04-04T00:15:52.416Z,3.24
2023-04-04T00:20:45.861Z,3.00
2023-04-04T00:25:39.413Z,3.22
2023-04-04T00:30:33.312Z,3.10
2023-04-04T00:35:28.135Z,3.04
2023-04-04T00:40:21.541Z,3.13
2023-04-04T00:45:15.052Z,3.03
2023-04-04T00:50:10.313Z,3.04
2023-04-04T00:55:06.654Z,2.98
2023-04-04T01:00:04.262Z,3.05
2023-04-04T01:04:57.782Z,2.96
2023-04-04T01:09:52.165Z,2.85
2023-04-04T01:14:46.945Z,2.96
2023-04-04T01:19:53.008Z,2.93
2023-04-04T01:24:49.688Z,2.71
2023-04-04T01:29:44.518Z,2.78
2023-04-04T01:34:48.371Z,2.67
2023-04-04T01:39:50.114Z,2.68
2023-04-04T01:44:45.983Z,2.71
2023-04-04T01:49:39.340Z,2.82
2023-04-04T01:54:34.111Z,2.67
2023-04-04T01:59:27.532Z,2.59
2023-04-04T02:04:22.511Z,2.69
2023-04-04T02:09:16.006Z,2.61
2023-04-04T02:14:09.944Z,2.58
2023-04-04T02:19:03.943Z,2.67
2023-04-04T02:23:58.981Z,2.18
2023-04-04T02:28:52.549Z,2.09
2023-04-04T02:33:46.411Z,2.22
2023-04-04T02:38:39.730Z,2.52
2023-04-04T02:43:34.413Z,2.49
2023-04-04T02:48:27.769Z,2.25
2023-04-04T02:53:23.860Z,2.23
2023-04-04T02:58:17.498Z,2.31
2023-04-04T03:03:12.438Z,2.04
2023-04-04T03:08:06.271Z,2.13
2023-04-04T03:13:00.019Z,1.95
2023-04-04T03:17:54.062Z,2.16
2023-04-04T03:22:49.329Z,2.09
2023-04-04T03:27:42.663Z,2.16
2023-04-04T03:32:37.217Z,2.31
2023-04-04T03:37:31.492Z,2.27
2023-04-04T03:42:26.914Z,1.81
2023-04-04T03:47:20.500Z,1.72
2023-04-04T03:52:13.859Z,1.94
2023-04-04T03:57:07.479Z,2.05
2023-04-04T04:02:02.193Z,2.36
2023-04-04T04:06:55.848Z,2.17
2023-04-04T04:11:49.177Z,1.87
2023-04-04T04:16:42.599Z,1.82
2023-04-04T04:21:37.398Z,0.98
2023-04-04T04:26:30.819Z,1.72
2023-04-04T04:31:24.147Z,2.02
2023-04-04T04:36:17.469Z,1.90
2023-04-04T04:41:12.196Z,2.00
2023-04-04T04:46:05.532Z,1.97
2023-04-04T04:50:58.808Z,1.93
2023-04-04T04:55:52.497Z,1.88
2023-04-04T05:00:47.279Z,1.75
2023-04-04T05:05:40.932Z,1.54
2023-04-04T05:10:34.406Z,1.69
2023-04-04T05:15:29.362Z,1.77
2023-04-04T05:20:24.454Z,1.86
2023-04-04T05:25:17.866Z,1.69
2023-04-04T05:30:12.595Z,1.89
2023-04-04T05:40:22.635Z,1.94
2023-04-04T05:45:16.291Z,1.74
2023-04-04T05:50:12.984Z,1.91
2023-04-04T05:55:07.694Z,1.98
2023-04-04T06:00:02.699Z,1.91
2023-04-04T06:04:55.917Z,1.81
2023-04-04T06:09:49.373Z,2.21
2023-04-04T06:14:42.763Z,2.39
2023-04-04T06:19:37.744Z,2.50
2023-04-04T06:24:31.595Z,2.55
2023-04-04T06:29:26.282Z,2.27
2023-04-04T06:34:22.768Z,2.18
2023-04-04T06:39:17.633Z,2.13
2023-04-04T06:44:11.237Z,2.12
2023-04-04T06:49:04.662Z,2.04
2023-04-04T06:59:06.832Z,2.49
2023-04-04T07:04:00.808Z,2.66
2023-04-04T07:08:54.346Z,2.67
2023-04-04T07:13:47.736Z,2.77
2023-04-04T07:18:42.516Z,2.89
2023-04-04T07:23:36.346Z,2.83
2023-04-04T07:28:29.672Z,2.90
2023-04-04T07:33:22.987Z,3.27
2023-04-04T07:38:17.687Z,3.06
2023-04-04T07:43:11.134Z,3.36
2023-04-04T07:48:04.872Z,3.62
2023-04-04T07:52:58.807Z,3.60
2023-04-04T07:57:54.663Z,3.80
2023-04-04T08:02:48.416Z,4.12
2023-04-04T08:07:42.744Z,4.31
2023-04-04T08:12:36.251Z,4.53
2023-04-04T08:17:31.321Z,4.71
2023-04-04T08:22:24.680Z,4.65
2023-04-04T08:27:18.058Z,4.49
2023-04-04T08:32:11.469Z,4.45
2023-04-04T08:37:06.640Z,4.80
2023-04-04T08:42:06.028Z,4.93
2023-04-04T08:47:02.636Z,5.08
2023-04-04T08:52:00.919Z,5.44
2023-04-04T08:56:56.153Z,5.46
2023-04-04T09:01:51.774Z,5.69
2023-04-04T09:06:45.919Z,5.75
2023-04-04T09:11:41.800Z,5.87
2023-04-04T09:16:36.648Z,5.66
2023-04-04T09:21:34.255Z,6.10
2023-04-04T09:26:27.767Z,5.96
2023-04-04T09:31:21.422Z,6.06
2023-04-04T09:41:22.818Z,6.30
2023-04-04T09:46:16.260Z,6.70
2023-04-04T09:51:14.211Z,6.73
2023-04-04T10:01:16.452Z,7.08
2023-04-04T10:06:11.350Z,6.57
2023-04-04T10:11:12.051Z,6.91
2023-04-04T10:16:06.728Z,6.96
2023-04-04T10:21:14.538Z,7.07
2023-04-04T10:26:09.990Z,7.09
2023-04-04T10:31:11.049Z,7.11
2023-04-04T10:36:13.986Z,7.38
2023-04-04T10:41:09.232Z,7.42
2023-04-04T10:51:13.068Z,6.95
2023-04-04T10:56:08.094Z,7.18
2023-04-04T11:01:01.441Z,7.31
2023-04-04T11:06:01.774Z,7.24
2023-04-04T11:10:57.536Z,7.26
2023-04-04T11:15:57.776Z,7.31
2023-04-04T11:20:51.732Z,7.49
2023-04-04T11:25:53.634Z,7.76
2023-04-04T11:30:51.358Z,7.66
2023-04-04T11:35:51.413Z,7.54
2023-04-04T11:40:56.383Z,7.50
2023-04-04T11:45:51.265Z,7.55
2023-04-04T11:50:49.761Z,7.59
2023-04-04T11:55:47.549Z,7.78
2023-04-04T12:00:41.659Z,7.42
2023-04-04T12:05:36.661Z,7.74
2023-04-04T12:10:33.455Z,7.71
2023-04-04T12:15:29.909Z,7.55
2023-04-04T12:20:24.760Z,7.70
2023-04-04T12:25:22.554Z,7.98
2023-04-04T12:30:17.079Z,7.74
2023-04-04T12:35:13.413Z,7.66
2023-04-04T12:40:08.526Z,7.62
2023-04-04T12:45:05.375Z,7.75
2023-04-04T12:49:58.740Z,7.62
2023-04-04T12:55:06.811Z,7.73
2023-04-04T13:00:06.752Z,7.76
2023-04-04T13:05:00.514Z,7.70
2023-04-04T13:09:57.174Z,7.41
2023-04-04T13:15:03.293Z,7.40
2023-04-04T13:19:56.623Z,7.33
2023-04-04T13:29:56.907Z,7.20
2023-04-04T13:34:51.670Z,7.48
2023-04-04T13:39:45.003Z,7.52
2023-04-04T13:44:38.329Z,7.50
2023-04-04T13:49:31.704Z,7.55
2023-04-04T13:54:26.543Z,7.47
2023-04-04T14:04:23.848Z,7.50
2023-04-04T14:09:17.701Z,7.25
2023-04-04T14:14:12.442Z,7.53
2023-04-04T14:19:06.132Z,7.75
2023-04-04T14:23:59.437Z,7.65
2023-04-04T14:28:52.766Z,7.57
2023-04-04T14:33:47.482Z,7.61
2023-04-04T14:43:53.074Z,7.68
2023-04-04T14:48:48.960Z,7.61
2023-04-04T14:53:41.673Z,7.63
2023-04-04T14:58:35.753Z,7.34
2023-04-04T15:03:29.154Z,7.52
2023-04-04T15:08:23.998Z,7.55
2023-04-04T15:18:22.768Z,7.68
2023-04-04T15:23:16.330Z,7.68
2023-04-04T15:33:18.358Z,7.63
2023-04-04T15:38:11.752Z,7.61
2023-04-04T15:43:05.066Z,7.49
2023-04-04T15:47:58.450Z,7.57
2023-04-04T15:52:53.217Z,7.65
2023-04-04T15:57:47.046Z,7.72
2023-04-04T16:02:40.758Z,7.49
2023-04-04T16:07:34.514Z,7.37
2023-04-04T16:12:29.505Z,7.25
2023-04-04T16:22:24.861Z,7.41
2023-04-04T16:27:18.265Z,7.35
2023-04-04T16:32:13.101Z,7.31
2023-04-04T16:37:06.434Z,7.23
2023-04-04T16:42:00.542Z,7.16
2023-04-04T16:46:58.730Z,7.22
2023-04-04T16:51:53.684Z,7.14
2023-04-04T16:56:47.178Z,7.03
2023-04-04T17:01:49.098Z,6.99
2023-04-04T17:06:42.567Z,7.02
2023-04-04T17:11:38.653Z,6.92
2023-04-04T17:16:33.346Z,6.94
2023-04-04T17:21:26.910Z,6.74
2023-04-04T17:26:21.142Z,6.72
2023-04-04T17:31:17.020Z,6.76
2023-04-04T17:36:10.756Z,6.64
2023-04-04T17:41:17.031Z,6.63
2023-04-04T17:46:10.565Z,6.49
2023-04-04T17:51:07.832Z,6.43
2023-04-04T17:56:31.585Z,6.50
2023-04-04T18:08:14.505Z,6.26
2023-04-04T18:13:16.695Z,6.28
2023-04-04T18:18:10.438Z,6.17
2023-04-04T18:23:04.535Z,6.11
2023-04-04T18:28:14.967Z,6.16
2023-04-04T18:33:08.670Z,6.10
2023-04-04T18:38:11.088Z,6.15
2023-04-04T18:43:08.832Z,5.99
2023-04-04T18:48:04.791Z,5.87
2023-04-04T18:53:41.089Z,5.90
2023-04-04T18:58:43.225Z,5.83
2023-04-04T19:04:13.737Z,5.77
2023-04-04T19:09:08.697Z,5.64
2023-04-04T19:14:42.484Z,5.76
2023-04-04T19:19:36.607Z,5.60
2023-04-04T19:24:32.186Z,5.40
2023-04-04T19:29:32.897Z,5.32
2023-04-04T19:34:26.619Z,5.34
2023-04-04T19:39:21.402Z,5.37
2023-04-04T19:44:23.073Z,5.28
2023-04-04T19:49:19.400Z,5.21
2023-04-04T19:54:17.520Z,5.09
2023-04-04T20:07:04.299Z,4.95
2023-04-04T20:11:57.626Z,5.00
2023-04-04T20:22:55.662Z,5.14
2023-04-04T20:27:50.734Z,4.98
2023-04-04T20:32:46.696Z,5.11
2023-04-04T20:38:10.345Z,4.93
2023-04-04T20:43:21.329Z,4.85
2023-04-04T20:49:19.390Z,4.49
2023-04-04T20:54:14.372Z,4.57
2023-04-04T20:59:43.953Z,4.60
2023-04-04T21:04:41.100Z,4.71
2023-04-04T21:09:41.794Z,4.64
2023-04-04T21:14:40.936Z,4.40
2023-04-04T21:19:34.383Z,4.28
2023-04-04T21:24:37.179Z,4.24
2023-04-04T21:29:33.436Z,4.31
2023-04-04T21:34:39.039Z,4.24
2023-04-04T21:39:37.880Z,4.10
2023-04-04T21:44:36.295Z,4.38
2023-04-04T21:49:33.655Z,4.37
2023-04-04T21:54:27.195Z,4.30
2023-04-04T21:59:21.978Z,4.41
2023-04-04T22:04:16.789Z,4.33
2023-04-04T22:09:10.731Z,4.32
2023-04-04T22:14:24.996Z,4.42
2023-04-04T22:19:23.588Z,4.39
2023-04-04T22:24:18.979Z,4.46
2023-04-04T22:29:12.505Z,4.43
2023-04-04T22:34:14.641Z,4.39
2023-04-04T22:39:10.014Z,4.37
2023-04-04T22:44:05.098Z,4.34
2023-04-04T22:49:06.737Z,4.37
2023-04-04T22:54:08.858Z,4.31
2023-04-04T22:59:08.338Z,4.29
2023-04-04T23:04:02.146Z,4.26
2023-04-04T23:08:55.522Z,4.18
2023-04-04T23:13:49.205Z,4.13
2023-04-04T23:18:45.812Z,4.06
2023-04-04T23:23:39.740Z,4.25
2023-04-04T23:28:38.476Z,4.37
2023-04-04T23:33:32.220Z,4.25
2023-04-04T23:38:27.348Z,4.06
2023-04-04T23:43:20.878Z,4.00
2023-04-04T23:48:14.401Z,4.00
2023-04-04T23:53:08.188Z,4.05
2023-04-04T23:58:03.975Z,3.80
